createdAt,value
2022-12-25T00:01:51.646Z,100397.38
2022-12-25T00:04:25.432Z,100400.29
2022-12-25T00:06:59.914Z,100406.05
2022-12-25T00:09:34.049Z,100413.90
2022-12-25T00:12:08.795Z,100423.21
2022-12-25T00:14:42.318Z,100430.31
2022-12-25T00:17:16.379Z,100438.80
2022-12-25T00:19:50.383Z,100445.39
2022-12-25T00:22:24.075Z,100449.57
2022-12-25T00:24:57.907Z,100449.20
2022-12-25T00:27:32.795Z,100454.10
2022-12-25T00:30:08.220Z,100458.34
2022-12-25T00:32:42.465Z,100457.82
2022-12-25T00:35:15.930Z,100457.33
2022-12-25T00:37:49.433Z,100458.62
2022-12-25T00:40:23.036Z,100459.80
2022-12-25T00:42:56.653Z,100465.59
2022-12-25T00:45:30.197Z,100475.72
2022-12-25T00:48:03.881Z,100484.16
2022-12-25T00:50:39.376Z,100488.35
2022-12-25T00:53:13.044Z,100496.45
2022-12-25T00:55:46.590Z,100502.55
2022-12-25T00:58:20.071Z,100507.23
2022-12-25T01:00:54.551Z,100512.63
2022-12-25T01:03:29.160Z,100521.12
2022-12-25T01:06:05.281Z,100524.11
2022-12-25T01:09:01.351Z,100522.70
2022-12-25T01:11:35.520Z,100521.36
2022-12-25T01:14:10.452Z,100527.73
2022-12-25T01:16:43.953Z,100532.91
2022-12-25T01:19:17.261Z,100528.88
2022-12-25T01:21:51.296Z,100528.77
2022-12-25T01:24:24.784Z,100525.10
2022-12-25T01:26:58.781Z,100523.04
2022-12-25T01:29:32.355Z,100519.85
2022-12-25T01:32:06.837Z,100515.81
2022-12-25T01:34:40.409Z,100517.10
2022-12-25T01:37:14.372Z,100517.75
2022-12-25T01:39:48.337Z,100522.73
2022-12-25T01:42:24.054Z,100520.94
2022-12-25T01:45:39.789Z,100519.82
2022-12-25T01:48:20.404Z,100523.98
2022-12-25T01:50:59.214Z,100531.46
2022-12-25T01:53:33.444Z,100536.24
2022-12-25T01:56:10.177Z,100533.71
2022-12-25T01:58:44.644Z,100531.17
2022-12-25T02:01:18.415Z,100531.98
2022-12-25T02:03:53.267Z,100529.95
2022-12-25T02:06:27.514Z,100532.48
2022-12-25T02:09:02.045Z,100529.33
2022-12-25T02:11:53.471Z,100522.78
2022-12-25T02:14:29.435Z,100518.89
2022-12-25T02:17:09.279Z,100517.98
2022-12-25T02:20:01.880Z,100516.90
2022-12-25T02:22:46.961Z,100518.48
2022-12-25T02:25:38.321Z,100518.95
2022-12-25T02:28:18.336Z,100517.48
2022-12-25T02:31:01.519Z,100510.95
2022-12-25T02:33:59.897Z,100509.81
2022-12-25T02:36:40.592Z,100512.75
2022-12-25T02:39:37.747Z,100510.76
2022-12-25T02:42:21.339Z,100512.41
2022-12-25T02:45:13.455Z,100512.41
2022-12-25T02:48:04.858Z,100515.36
2022-12-25T02:50:56.790Z,100519.06
2022-12-25T02:53:49.335Z,100522.22
2022-12-25T02:56:42.393Z,100520.67
2022-12-25T02:59:36.399Z,100526.16
2022-12-25T03:02:28.746Z,100523.75
2022-12-25T03:05:26.404Z,100521.55
2022-12-25T03:08:04.297Z,100525.52
2022-12-25T03:10:59.587Z,100523.84
2022-12-25T03:13:38.790Z,100528.23
2022-12-25T03:16:30.070Z,100531.73
2022-12-25T03:19:24.963Z,100524.91
2022-12-25T03:22:16.867Z,100527.70
2022-12-25T03:25:08.703Z,100531.73
2022-12-25T03:27:44.582Z,100534.92
2022-12-25T03:30:36.102Z,100531.59
2022-12-25T03:33:43.967Z,100528.19
2022-12-25T03:36:20.480Z,100528.90
2022-12-25T03:39:28.083Z,100531.05
2022-12-25T03:42:24.695Z,100528.14
2022-12-25T03:45:23.000Z,100525.61
2022-12-25T03:48:16.336Z,100525.78
2022-12-25T03:51:13.582Z,100531.55
2022-12-25T03:54:09.200Z,100532.09
2022-12-25T03:57:02.833Z,100536.70
2022-12-25T03:59:54.304Z,100542.44
2022-12-25T04:02:45.720Z,100546.89
2022-12-25T04:05:33.709Z,100550.95
2022-12-25T04:08:36.532Z,100555.48
2022-12-25T04:11:28.071Z,100560.29
2022-12-25T04:14:19.636Z,100558.45
2022-12-25T04:17:22.504Z,100553.92
2022-12-25T04:20:13.640Z,100544.24
2022-12-25T04:23:05.437Z,100541.92
2022-12-25T04:25:57.025Z,100548.98
2022-12-25T04:28:48.149Z,100548.33
2022-12-25T04:31:39.121Z,100547.45
2022-12-25T04:34:30.583Z,100554.13
2022-12-25T04:37:04.435Z,100561.43
2022-12-25T04:39:38.165Z,100565.13
2022-12-25T04:42:13.069Z,100563.39
2022-12-25T04:44:46.963Z,100562.30
2022-12-25T04:47:20.780Z,100569.27
2022-12-25T04:49:54.548Z,100570.39
2022-12-25T04:52:28.387Z,100568.60
2022-12-25T04:55:01.956Z,100569.46
2022-12-25T04:57:35.684Z,100571.48
2022-12-25T05:00:11.604Z,100569.40
2022-12-25T05:02:45.200Z,100569.69
2022-12-25T05:05:19.278Z,100564.56
2022-12-25T05:07:53.224Z,100564.63
2022-12-25T05:10:26.634Z,100567.66
2022-12-25T05:13:00.379Z,100579.64
2022-12-25T05:15:34.288Z,100569.70
2022-12-25T05:18:08.161Z,100569.46
2022-12-25T05:20:42.155Z,100570.00
2022-12-25T05:23:16.250Z,100569.79
2022-12-25T05:25:49.794Z,100574.95
2022-12-25T05:28:23.606Z,100577.69
2022-12-25T05:30:59.768Z,100580.36
2022-12-25T05:33:33.668Z,100588.13
2022-12-25T05:36:10.154Z,100592.73
2022-12-25T05:38:43.928Z,100596.72
2022-12-25T05:41:17.602Z,100599.46
2022-12-25T05:43:51.506Z,100600.83
2022-12-25T05:46:25.291Z,100607.14
2022-12-25T05:48:59.183Z,100605.50
2022-12-25T05:51:33.157Z,100607.34
2022-12-25T05:54:06.915Z,100614.94
2022-12-25T05:56:41.219Z,100617.84
2022-12-25T05:59:15.359Z,100617.38
2022-12-25T06:01:48.892Z,100615.20
2022-12-25T06:04:22.443Z,100614.98
2022-12-25T06:06:56.796Z,100617.38
2022-12-25T06:09:30.763Z,100624.23
2022-12-25T06:12:04.211Z,100629.88
2022-12-25T06:14:38.544Z,100634.25
2022-12-25T06:17:12.772Z,100640.86
2022-12-25T06:19:47.324Z,100644.95
2022-12-25T06:22:20.875Z,100652.27
2022-12-25T06:24:54.944Z,100657.34
2022-12-25T06:27:28.892Z,100664.36
2022-12-25T06:30:02.754Z,100667.80
2022-12-25T06:32:36.451Z,100671.43
2022-12-25T06:35:11.444Z,100671.77
2022-12-25T06:37:45.088Z,100675.82
2022-12-25T06:40:19.173Z,100682.23
2022-12-25T06:42:53.217Z,100685.92
2022-12-25T06:45:26.948Z,100688.16
2022-12-25T06:48:00.393Z,100693.42
2022-12-25T06:50:34.235Z,100696.88
2022-12-25T06:53:07.784Z,100698.10
2022-12-25T06:55:41.171Z,100703.55
2022-12-25T06:58:14.817Z,100716.03
2022-12-25T07:00:48.305Z,100718.36
2022-12-25T07:03:24.627Z,100724.14
2022-12-25T07:05:58.300Z,100723.46
2022-12-25T07:08:32.451Z,100730.36
2022-12-25T07:11:06.540Z,100732.59
2022-12-25T07:13:40.398Z,100738.84
2022-12-25T07:16:14.914Z,100741.38
2022-12-25T07:18:49.025Z,100741.59
2022-12-25T07:21:23.400Z,100739.38
2022-12-25T07:23:57.243Z,100744.83
2022-12-25T07:26:30.915Z,100745.73
2022-12-25T07:29:04.739Z,100751.94
2022-12-25T07:31:38.621Z,100757.13
2022-12-25T07:34:12.327Z,100760.92
2022-12-25T07:36:45.905Z,100766.78
2022-12-25T07:39:20.297Z,100770.06
2022-12-25T07:41:54.447Z,100772.23
2022-12-25T07:44:28.024Z,100772.14
2022-12-25T07:47:01.782Z,100774.09
2022-12-25T07:49:35.712Z,100779.05
2022-12-25T07:52:09.715Z,100784.20
2022-12-25T07:54:43.184Z,100790.95
2022-12-25T07:57:17.152Z,100796.27
2022-12-25T07:59:50.634Z,100796.52
2022-12-25T08:02:29.093Z,100800.30
2022-12-25T08:05:03.230Z,100799.25
2022-12-25T08:07:37.292Z,100804.66
2022-12-25T08:10:12.832Z,100808.77
2022-12-25T08:12:46.543Z,100817.55
2022-12-25T08:15:20.059Z,100819.45
2022-12-25T08:17:53.563Z,100820.08
2022-12-25T08:20:27.290Z,100821.61
2022-12-25T08:23:00.931Z,100825.41
2022-12-25T08:25:34.534Z,100825.91
2022-12-25T08:28:08.511Z,100832.22
2022-12-25T08:30:43.327Z,100833.13
2022-12-25T08:33:17.121Z,100836.59
2022-12-25T08:35:51.121Z,100831.21
2022-12-25T08:38:24.884Z,100834.46
2022-12-25T08:40:59.016Z,100840.38
2022-12-25T08:43:32.574Z,100847.21
2022-12-25T08:46:07.209Z,100855.82
2022-12-25T08:48:42.978Z,100858.52
2022-12-25T08:51:18.211Z,100863.35
2022-12-25T08:53:53.058Z,100866.64
2022-12-25T08:56:26.588Z,100869.25
2022-12-25T08:59:00.603Z,100863.88
2022-12-25T09:01:34.525Z,100866.55
2022-12-25T09:04:08.809Z,100867.24
2022-12-25T09:06:42.587Z,100867.40
2022-12-25T09:09:16.457Z,100870.23
2022-12-25T09:11:50.641Z,100879.05
2022-12-25T09:14:24.322Z,100880.89
2022-12-25T09:16:58.187Z,100883.46
2022-12-25T09:19:32.376Z,100890.34
2022-12-25T09:22:06.079Z,100889.05
2022-12-25T09:24:41.067Z,100888.66
2022-12-25T09:27:15.395Z,100888.33
2022-12-25T09:29:49.531Z,100888.40
2022-12-25T09:32:23.669Z,100881.89
2022-12-25T09:34:57.873Z,100890.52
2022-12-25T09:37:31.784Z,100891.43
2022-12-25T09:40:06.015Z,100884.88
2022-12-25T09:42:39.921Z,100876.58
2022-12-25T09:45:20.118Z,100874.20
2022-12-25T09:47:57.407Z,100875.36
2022-12-25T09:50:41.317Z,100876.22
2022-12-25T09:53:21.155Z,100876.48
2022-12-25T09:56:01.908Z,100886.91
2022-12-25T09:58:36.024Z,100887.54
2022-12-25T10:01:18.377Z,100883.20
2022-12-25T10:04:10.924Z,100879.34
2022-12-25T10:06:54.321Z,100872.30
2022-12-25T10:09:48.246Z,100871.12
2022-12-25T10:12:34.283Z,100871.31
2022-12-25T10:15:33.009Z,100868.88
2022-12-25T10:18:34.046Z,100871.73
2022-12-25T10:21:13.380Z,100874.44
2022-12-25T10:23:53.893Z,100871.55
2022-12-25T10:26:28.648Z,100874.91
2022-12-25T10:29:07.055Z,100873.89
2022-12-25T10:31:42.115Z,100877.23
2022-12-25T10:34:18.289Z,100878.95
2022-12-25T10:36:52.707Z,100882.05
2022-12-25T10:39:27.819Z,100882.65
2022-12-25T10:42:33.279Z,100881.05
2022-12-25T10:45:09.783Z,100884.16
2022-12-25T10:47:44.522Z,100891.14
2022-12-25T10:50:24.840Z,100898.20
2022-12-25T10:53:04.774Z,100893.69
2022-12-25T10:55:38.462Z,100891.09
2022-12-25T10:58:21.718Z,100886.26
2022-12-25T11:01:02.754Z,100886.38
2022-12-25T11:03:39.098Z,100887.68
2022-12-25T11:06:26.434Z,100889.49
2022-12-25T11:09:02.530Z,100888.17
2022-12-25T11:11:38.647Z,100882.55
2022-12-25T11:14:21.453Z,100878.39
2022-12-25T11:16:55.283Z,100878.38
2022-12-25T11:19:31.230Z,100873.70
2022-12-25T11:22:06.919Z,100870.23
2022-12-25T11:24:40.388Z,100874.11
2022-12-25T11:27:26.579Z,100867.10
2022-12-25T11:30:03.806Z,100860.05
2022-12-25T11:32:44.796Z,100863.04
2022-12-25T11:35:20.852Z,100865.37
2022-12-25T11:37:55.977Z,100861.93
2022-12-25T11:40:37.885Z,100861.58
2022-12-25T11:43:18.137Z,100860.14
2022-12-25T11:45:56.071Z,100861.82
2022-12-25T11:48:33.671Z,100863.52
2022-12-25T11:51:11.392Z,100867.73
2022-12-25T11:53:51.508Z,100879.35
2022-12-25T11:56:28.476Z,100873.91
2022-12-25T11:59:12.488Z,100879.75
2022-12-25T12:01:54.250Z,100882.66
2022-12-25T12:04:40.238Z,100883.99
2022-12-25T12:07:25.898Z,100881.79
2022-12-25T12:10:05.413Z,100883.39
2022-12-25T12:12:49.351Z,100886.02
2022-12-25T12:15:31.406Z,100885.70
2022-12-25T12:18:20.608Z,100889.77
2022-12-25T12:21:06.360Z,100891.54
2022-12-25T12:23:52.734Z,100895.42
2022-12-25T12:26:28.128Z,100897.72
2022-12-25T12:29:04.136Z,100900.10
2022-12-25T12:31:46.272Z,100898.05
2022-12-25T12:34:27.637Z,100900.71
2022-12-25T12:37:06.570Z,100897.82
2022-12-25T12:39:42.270Z,100892.17
2022-12-25T12:42:26.292Z,100897.05
2022-12-25T12:45:10.580Z,100892.30
2022-12-25T12:47:46.889Z,100889.59
2022-12-25T12:50:40.373Z,100885.16
2022-12-25T12:53:38.450Z,100886.30
2022-12-25T12:56:18.533Z,100886.10
2022-12-25T12:58:53.096Z,100883.69
2022-12-25T13:01:47.308Z,100886.54
2022-12-25T13:04:50.766Z,100888.95
2022-12-25T13:07:44.809Z,100888.19
2022-12-25T13:10:27.296Z,100881.70
2022-12-25T13:13:04.764Z,100873.06
2022-12-25T13:15:40.203Z,100872.54
2022-12-25T13:18:16.520Z,100869.25
2022-12-25T13:20:55.434Z,100876.93
2022-12-25T13:23:32.766Z,100883.39
2022-12-25T13:26:13.108Z,100891.80
2022-12-25T13:28:49.653Z,100897.56
2022-12-25T13:31:25.136Z,100899.70
2022-12-25T13:34:04.285Z,100901.30
2022-12-25T13:36:41.184Z,100902.48
2022-12-25T13:39:19.880Z,100905.48
2022-12-25T13:42:10.316Z,100907.73
2022-12-25T13:44:49.879Z,100909.41
2022-12-25T13:47:31.829Z,100910.85
2022-12-25T13:50:18.856Z,100911.73
2022-12-25T13:52:53.431Z,100913.36
2022-12-25T13:55:29.128Z,100914.15
2022-12-25T13:58:05.349Z,100921.28
2022-12-25T14:00:41.108Z,100927.70
2022-12-25T14:03:23.794Z,100925.88
2022-12-25T14:06:02.708Z,100923.51
2022-12-25T14:08:38.628Z,100920.61
2022-12-25T14:11:16.091Z,100924.42
2022-12-25T14:13:53.139Z,100926.08
2022-12-25T14:16:27.794Z,100931.88
2022-12-25T14:19:04.210Z,100937.54
2022-12-25T14:21:41.283Z,100939.11
2022-12-25T14:24:19.100Z,100936.74
2022-12-25T14:27:01.818Z,100932.79
2022-12-25T14:29:41.321Z,100930.63
2022-12-25T14:32:19.965Z,100929.83
2022-12-25T14:34:57.026Z,100930.81
2022-12-25T14:37:33.578Z,100931.99
2022-12-25T14:40:23.101Z,100938.79
2022-12-25T14:43:01.908Z,100936.79
2022-12-25T14:45:38.908Z,100935.50
2022-12-25T14:48:25.408Z,100936.59
2022-12-25T14:51:04.827Z,100936.29
2022-12-25T14:53:42.935Z,100939.14
2022-12-25T14:56:20.746Z,100941.89
2022-12-25T14:58:56.326Z,100943.71
2022-12-25T15:01:33.498Z,100944.71
2022-12-25T15:04:19.272Z,100945.89
2022-12-25T15:06:59.787Z,100953.04
2022-12-25T15:09:36.307Z,100955.09
2022-12-25T15:12:10.562Z,100957.67
2022-12-25T15:14:44.687Z,100955.45
2022-12-25T15:17:29.117Z,100959.00
2022-12-25T15:20:07.011Z,100954.71
2022-12-25T15:23:10.016Z,100951.95
2022-12-25T15:25:35.555Z,100945.80
2022-12-25T15:28:12.993Z,100936.55
2022-12-25T15:30:47.069Z,100935.14
2022-12-25T15:33:21.795Z,100939.59
2022-12-25T15:35:55.409Z,100942.76
2022-12-25T15:38:29.310Z,100948.88
2022-12-25T15:41:03.069Z,100951.84
2022-12-25T15:43:40.963Z,100953.02
2022-12-25T15:46:15.950Z,100958.58
2022-12-25T15:48:49.754Z,100964.99
2022-12-25T15:51:23.941Z,100965.54
2022-12-25T15:53:58.814Z,100964.71
2022-12-25T15:56:38.649Z,100965.79
2022-12-25T15:59:13.959Z,100966.66
2022-12-25T16:01:50.832Z,100965.33
2022-12-25T16:04:26.400Z,100959.70
2022-12-25T16:07:00.372Z,100958.04
2022-12-25T16:09:34.225Z,100960.33
2022-12-25T16:12:08.218Z,100958.36
2022-12-25T16:14:42.329Z,100957.20
2022-12-25T16:17:17.429Z,100953.70
2022-12-25T16:19:50.972Z,100955.02
2022-12-25T16:22:27.266Z,100956.30
2022-12-25T16:25:01.322Z,100956.85
2022-12-25T16:27:34.939Z,100954.45
2022-12-25T16:30:11.294Z,100949.73
2022-12-25T16:32:45.781Z,100955.81
2022-12-25T16:35:19.791Z,100963.77
2022-12-25T16:37:53.992Z,100966.81
2022-12-25T16:40:28.115Z,100966.18
2022-12-25T16:43:02.356Z,100967.31
2022-12-25T16:45:41.313Z,100968.11
2022-12-25T16:48:15.996Z,100969.52
2022-12-25T16:50:50.003Z,100963.73
2022-12-25T16:53:24.258Z,100955.67
2022-12-25T16:56:09.613Z,100950.54
2022-12-25T16:58:46.942Z,100947.73
2022-12-25T17:01:23.869Z,100951.11
2022-12-25T17:04:01.780Z,100952.20
2022-12-25T17:06:35.850Z,100958.61
2022-12-25T17:09:10.969Z,100959.12
2022-12-25T17:11:44.986Z,100954.12
2022-12-25T17:14:18.564Z,100946.92
2022-12-25T17:16:52.774Z,100942.25
2022-12-25T17:19:26.436Z,100943.38
2022-12-25T17:22:01.204Z,100943.38
2022-12-25T17:24:37.733Z,100939.20
2022-12-25T17:27:11.911Z,100938.76
2022-12-25T17:29:47.605Z,100940.09
2022-12-25T17:32:22.024Z,100936.46
2022-12-25T17:34:55.978Z,100935.45
2022-12-25T17:37:29.601Z,100932.66
2022-12-25T17:40:03.448Z,100936.48
2022-12-25T17:42:37.413Z,100930.71
2022-12-25T17:45:13.119Z,100921.77
2022-12-25T17:47:47.095Z,100916.14
2022-12-25T17:50:20.955Z,100916.15
2022-12-25T17:52:54.790Z,100919.55
2022-12-25T17:55:34.577Z,100918.94
2022-12-25T17:58:09.514Z,100909.30
2022-12-25T18:00:44.374Z,100900.34
2022-12-25T18:03:18.652Z,100896.02
2022-12-25T18:05:52.507Z,100895.80
2022-12-25T18:08:26.384Z,100902.09
2022-12-25T18:11:03.749Z,100907.27
2022-12-25T18:13:37.691Z,100911.10
2022-12-25T18:16:12.858Z,100909.86
2022-12-25T18:18:51.884Z,100916.42
2022-12-25T18:21:26.764Z,100923.84
2022-12-25T18:24:00.495Z,100922.44
2022-12-25T18:26:35.133Z,100919.24
2022-12-25T18:29:09.119Z,100925.38
2022-12-25T18:31:43.252Z,100925.88
2022-12-25T18:34:17.326Z,100925.66
2022-12-25T18:36:52.706Z,100924.58
2022-12-25T18:39:26.663Z,100925.37
2022-12-25T18:42:18.706Z,100923.48
2022-12-25T18:44:52.376Z,100923.39
2022-12-25T18:47:26.493Z,100926.20
2022-12-25T18:50:01.231Z,100926.10
2022-12-25T18:52:48.250Z,100923.40
2022-12-25T18:55:25.609Z,100929.55
2022-12-25T18:57:59.807Z,100922.70
2022-12-25T19:00:34.156Z,100911.77
2022-12-25T19:03:08.712Z,100910.83
2022-12-25T19:05:44.118Z,100908.34
2022-12-25T19:08:18.205Z,100905.32
2022-12-25T19:10:52.313Z,100896.45
2022-12-25T19:13:26.083Z,100892.17
2022-12-25T19:16:02.875Z,100886.05
2022-12-25T19:18:36.999Z,100888.59
2022-12-25T19:21:13.054Z,100880.41
2022-12-25T19:23:47.247Z,100877.65
2022-12-25T19:26:21.285Z,100876.98
2022-12-25T19:28:55.906Z,100874.98
2022-12-25T19:31:29.882Z,100870.67
2022-12-25T19:34:04.211Z,100868.30
2022-12-25T19:36:39.539Z,100868.67
2022-12-25T19:39:15.370Z,100862.08
2022-12-25T19:41:50.145Z,100857.27
2022-12-25T19:44:24.791Z,100860.20
2022-12-25T19:46:58.561Z,100874.04
2022-12-25T19:49:35.247Z,100872.42
2022-12-25T19:52:10.405Z,100869.35
2022-12-25T19:54:44.052Z,100868.83
2022-12-25T19:57:18.075Z,100872.42
2022-12-25T19:59:52.947Z,100874.95
2022-12-25T20:02:27.574Z,100876.45
2022-12-25T20:05:02.024Z,100875.61
2022-12-25T20:07:36.747Z,100873.23
2022-12-25T20:10:11.474Z,100878.09
2022-12-25T20:12:46.668Z,100879.77
2022-12-25T20:15:21.704Z,100874.30
2022-12-25T20:17:56.243Z,100871.92
2022-12-25T20:20:30.709Z,100872.21
2022-12-25T20:23:05.514Z,100868.53
2022-12-25T20:25:43.268Z,100864.98
2022-12-25T20:28:17.786Z,100865.84
2022-12-25T20:30:51.571Z,100863.60
2022-12-25T20:33:26.942Z,100855.64
2022-12-25T20:36:03.307Z,100853.52
2022-12-25T20:38:38.660Z,100850.92
2022-12-25T20:41:30.488Z,100849.94
2022-12-25T20:44:04.772Z,100846.02
2022-12-25T20:46:38.871Z,100837.48
2022-12-25T20:49:12.694Z,100835.77
2022-12-25T20:51:47.205Z,100829.75
2022-12-25T20:54:20.977Z,100832.60
2022-12-25T20:56:55.034Z,100823.65
2022-12-25T20:59:37.000Z,100817.48
2022-12-25T21:02:34.468Z,100811.38
2022-12-25T21:05:08.345Z,100810.89
2022-12-25T21:07:42.243Z,100809.98
2022-12-25T21:10:16.134Z,100807.05
2022-12-25T21:12:49.580Z,100805.64
2022-12-25T21:15:24.046Z,100805.34
2022-12-25T21:17:57.691Z,100800.62
2022-12-25T21:20:31.191Z,100799.83
2022-12-25T21:23:05.332Z,100798.88
2022-12-25T21:25:39.499Z,100802.26
2022-12-25T21:28:13.115Z,100796.39
2022-12-25T21:30:47.042Z,100791.65
2022-12-25T21:33:38.345Z,100795.10
2022-12-25T21:36:13.769Z,100796.09
2022-12-25T21:38:47.731Z,100791.55
2022-12-25T21:41:21.976Z,100788.61
2022-12-25T21:43:56.414Z,100788.71
2022-12-25T21:46:30.880Z,100788.98
2022-12-25T21:49:05.775Z,100784.02
2022-12-25T21:51:57.280Z,100778.01
2022-12-25T21:54:31.538Z,100775.76
2022-12-25T21:57:05.572Z,100767.64
2022-12-25T21:59:39.611Z,100765.85
2022-12-25T22:02:14.117Z,100765.19
2022-12-25T22:04:48.317Z,100767.23
2022-12-25T22:07:22.331Z,100762.16
2022-12-25T22:09:56.735Z,100760.92
2022-12-25T22:12:47.700Z,100751.69
2022-12-25T22:15:22.002Z,100740.06
2022-12-25T22:18:13.140Z,100736.25
2022-12-25T22:20:47.067Z,100742.30
2022-12-25T22:23:20.649Z,100740.67
2022-12-25T22:25:54.416Z,100730.61
2022-12-25T22:28:27.893Z,100722.38
2022-12-25T22:31:04.512Z,100717.30
2022-12-25T22:33:38.389Z,100713.36
2022-12-25T22:36:13.327Z,100709.62
2022-12-25T22:38:47.309Z,100705.98
2022-12-25T22:41:21.095Z,100700.55
2022-12-25T22:44:18.862Z,100697.39
2022-12-25T22:46:48.692Z,100704.38
2022-12-25T22:49:22.980Z,100705.92
2022-12-25T22:51:56.879Z,100703.72
2022-12-25T22:54:32.949Z,100702.73
2022-12-25T22:57:07.906Z,100689.56
2022-12-25T22:59:41.577Z,100683.28
2022-12-25T23:02:15.682Z,100677.00
2022-12-25T23:04:50.074Z,100667.23
2022-12-25T23:07:23.991Z,100672.53
2022-12-25T23:09:59.262Z,100675.27
2022-12-25T23:12:50.813Z,100672.20
2022-12-25T23:15:25.353Z,100670.73
2022-12-25T23:18:16.983Z,100672.39
2022-12-25T23:21:08.580Z,100664.24
2022-12-25T23:23:59.780Z,100654.70
2022-12-25T23:26:34.097Z,100643.61
2022-12-25T23:29:25.866Z,100638.02
2022-12-25T23:32:00.561Z,100649.23
2022-12-25T23:34:34.209Z,100650.10
2022-12-25T23:37:08.824Z,100645.34
2022-12-25T23:39:42.611Z,100651.66
2022-12-25T23:42:16.632Z,100649.21
2022-12-25T23:44:50.374Z,100650.98
2022-12-25T23:47:24.653Z,100650.70
2022-12-25T23:49:58.316Z,100642.91
2022-12-25T23:52:31.997Z,100632.79
2022-12-25T23:55:05.952Z,100635.47
2022-12-25T23:57:39.632Z,100624.65
